Ride Results

State Champ Fundraiser (21-10-2006)
Ride distance: 80.0 km

Outcomes - State Champ Fundraiser (21-10-2006)
Division No. of Entries Retired / DNE Completed Withdrawn Ineligible V/O Percentage Completed
HW 5 - 4 - - 1 80.00%
MW 27 - 23 2 - 2 85.19%
LW 16 - 13 - - 3 81.25%
JN 5 - 4 - - 1 80.00%
Totals 53 - 44 2 - 7 83.02%
Results - State Champ Fundraiser (21-10-2006)
No. Rider Horse Place Time Leg Speeds Total
Km/Hr
H/R bpm
Heavyweight
198 Jake Tammens Highland View Vale 1 5:12:00 15.5, 15.1 15.38 40, 44, 49 (Avg:46)
11 Adam Richardson Jumpin Jai 2 6:13:00 13.1, 12.5 12.87 36, 47, 47 (Avg:47)
36 Chris Webb Kalody Park Shubek 3 6:25:00 14.2, 11.1 12.47 44, 50, 52 (Avg:51)
48 Alison Colbeck Glendhu Summerdance 4 6:47:00 12.7, 10.9 11.79 36, 46, 51 (Avg:48)
14 Philip Gerke Karshna Wings of Fire Heart Rate L1 0:00:00 13.2 - 47, 60 (Avg:60)
Middleweight
7 Carol Dobson Three Trunks Hamos 1 4:43:00 19.5, 14.9 16.96 34, 42, 50 (Avg:46)
99 Heather Johnson Sunhaven Brooklyn 1 4:43:00 19.3, 15.0 16.96 36, 40, 43 (Avg:41)
16 Margaret Richardson Mahtob 3 4:48:00 18.1, 15.3 16.67 35, 48, 48 (Avg:48)
24 Kylie Williams Sonarai Blue Sage 4 5:03:00 16.7, 14.9 15.84 40, 50, 58 (Avg:54)
57 Tania Jago River Gum Bounty 5 5:12:00 17.5, 13.7 15.38 40, 45, 54 (Avg:49)
142 Shayne Williams Shayelle Jackson 6 5:12:01 18.6, 13.1 15.38 39, 49, 56 (Avg:52)
68 Janine Parr Madame Pandora 7 5:26:00 16.2, 13.4 14.72 34, 41, 44 (Avg:42)
193 Robyn Nibbs Rathmore Mystique 8 5:30:00 16.2, 13.1 14.55 40, 44, 52 (Avg:48)
42 Dianne Walsh Tierview El Mishkatarn 9 5:59:00 15.5, 11.7 13.37 49, 47, 54 (Avg:50)
50 Joanne Marshall Razorback Charlotte 10 6:10:00 13.2, 12.6 12.97 40, 43, 55 (Avg:49)
10 Libby Webb Sayida Mufti 11 6:25:00 14.2, 11.1 12.47 47, 42, 53 (Avg:47)
33 Tamieka Webb Montego Star 12 6:25:01 14.2, 11.1 12.47 40, 51, 49 (Avg:50)
38 Tony Purton Enderby Rakaia 13 6:26:00 13.1, 11.7 12.44 40, 53, 59 (Avg:56)
199 Rosemary Skipper Tierview Feather Danczer 14 6:36:00 13.1, 11.2 12.12 46, 52, 58 (Avg:55)
49A Tammy Lamprey Malricia Sekura 15 6:47:00 12.7, 10.9 11.79 52, 44, 53 (Avg:48)
186 Kate Guiane Nabowla Nook Nite 16 6:47:04 12.7, 10.9 11.79 36, 46, 47 (Avg:46)
22 Helen Astell Eden Hope Liberty 17 6:48:00 12.8, 10.8 11.76 48, 50, 57 (Avg:53)
190 Anthony Bloom Kerribea 17 6:48:00 13.1, 10.6 11.76 42, 50, 58 (Avg:54)
46 Emma Parker Highland View Jamie 19 6:48:03 12.8, 10.8 11.76 43, 46, 47 (Avg:46)
40 Ricky Febey Spud 20 6:49:00 13.2, 10.5 11.74 38, 41, 43 (Avg:42)
61 Jonathon Field Cotton 21 7:19:00 12.2, 9.8 10.93 38, 44, 50 (Avg:47)
4 Helen Bowkett Elphyn Isabella 22 7:28:00 11.4, 10.0 10.71 43, 36, 45 (Avg:40)
102 Keryn Mahoney Sarisha 22 7:28:00 11.4, 10.0 10.71 38, 40, 52 (Avg:46)
200 Jenny Keygan Elphyn Max Heart Rate L2 0:00:00 18.0, 15.4 - 36, 50, 66 (Avg:58)
30 Karyn Holden Elphyn Timothy Withdrawn L1 0:00:00 - - 35, 54 (Avg:54)
20 Ossie Owen Mountain Park Allegretto Lame L1 0:00:00 19.5 - 33, 45 (Avg:45)
49 Tammy Lamprey Malricia Walter Withdrawn P/R 0:00:00 - - -
Lightweight
3 Brenda Hardwicke Al-Shibam 1 4:29:01 20.3, 15.8 17.84 44, 46, 54 (Avg:50)
37 Jen Clingly Imaj Zamir 2 4:33:00 18.7, 16.5 17.58 38, 46, 42 (Avg:44)
83 Angie Clark Touchwarr Rogan 3 5:30:01 16.2, 13.1 14.54 49, 48, 55 (Avg:51)
197 Jeremy Robertson Touchwarr Serenity 4 6:10:01 13.2, 12.6 12.97 40, 44, 43 (Avg:43)
12 Anita Hutchins Touchwarr El-Akhair Ajala 5 6:10:02 13.2, 12.6 12.97 46, 44, 51 (Avg:47)
32 Donna Wall Shasalina Shannondoah 6 6:10:03 13.2, 12.6 12.97 36, 40, 46 (Avg:43)
1 Ann Richards Middleton's Rousabout 7 6:13:00 14.2, 11.7 12.87 32, 42, 43 (Avg:42)
196 Dominique Emery Highland View Little Jimmy Spooker 8 6:13:01 13.1, 12.5 12.87 37, 46, 60 (Avg:53)
53 Deborah Cole Karshna Sultans Comfort 9 6:21:00 13.2, 11.9 12.60 38, 42, 44 (Avg:43)
26 Narelle Sward Pallano Kisha 10 6:23:00 13.8, 11.4 12.53 54, 44, 51 (Avg:47)
51 Debbie Leary Dunwingeri Hero 11 6:36:00 13.1, 11.2 12.12 39, 46, 54 (Avg:50)
21 Karen Quinn Zip 12 6:48:00 12.8, 10.8 11.76 37, 45, 48 (Avg:46)
62 Tanya Field Flanders 13 7:19:00 12.2, 9.8 10.93 36, 48, 56 (Avg:52)
187 Toni Sheehan Orabanda Casey Jones Heart Rate L2 0:00:00 12.7, 10.9 - 43, 50, 63 (Avg:56)
194 Donna Griffiths Bellbird Malibu Lame L1 0:00:00 14.3 - 38, 48 (Avg:48)
23 Tracey Nutting Shemali Mikalaa Lame L1 0:00:00 18.7 - 42, 45 (Avg:45)
Junior
27 Danza Hardwicke Blaze 1 4:29:00 20.3, 15.8 17.84 42, 48, 54 (Avg:51)
79 Shannon Hill Lockleigh Park Misty Rose 2 4:48:01 18.1, 15.3 16.67 39, 44, 52 (Avg:48)
78 Brad Hill Storm 3 4:48:02 18.1, 15.3 16.66 55, 57 (Avg:56)
28 Dimity Schofield Thaedon Stealth 4 6:47:01 12.7, 10.9 11.79 44, 46, 53 (Avg:49)
18 Sheleah Astell Pancho Heart Rate L2 0:00:00 16.7, 14.9 - 42, 53, 65 (Avg:59)